Time;durP1;ratioP1;P1;durP2;ratioP2;P2;SDS_P1;SDS_P2;PMS_P1;PMS_P2;Temp;Humidity;BMP_temperature;BMP_pressure;BME280_temperature;BME280_humidity;BME280_pressure;Samples;Min_cycle;Max_cycle;Signal;HPM_P1;HPM_P2
2022/09/12 00:00:24;;;;;;;;;;;;;;;22.43;59.86;101067.69;2245355;77;50097;-76
2022/09/12 00:03:25;;;;;;;;;;;;;;;22.43;60.05;101070.87;2294890;77;50319;-76
2022/09/12 00:06:28;;;;;;;;;;;;;;;22.44;60.08;101064.47;2269965;77;50278;-76
2022/09/12 00:09:29;;;;;;;;;;;;;;;22.45;60.06;101066.12;2295066;77;51505;-76
2022/09/12 00:12:31;;;;;;;;;;;;;;;22.45;59.95;101060.20;2271515;77;50079;-76
2022/09/12 00:15:34;;;;;;;;;;;;;;;22.45;60.11;101060.72;2216931;79;51494;-76
2022/09/12 00:18:36;;;;;;;;;;;;;;;22.44;60.15;101059.90;2256776;77;51623;-77
2022/09/12 00:21:38;;;;;;;;;;;;;;;22.45;60.08;101053.98;2274555;78;51482;-76
2022/09/12 00:24:39;;;;;;;;;;;;;;;22.46;60.28;101060.54;2260942;78;52850;-76
2022/09/12 00:27:41;;;;;;;;;;;;;;;22.50;60.34;101051.52;2287469;78;51577;-77
2022/09/12 00:30:43;;;;;;;;;;;;;;;22.48;60.38;101050.88;2287387;78;50237;-77
2022/09/12 00:33:45;;;;;;;;;;;;;;;22.46;60.43;101055.67;2273692;76;50831;-76
2022/09/12 00:36:47;;;;;;;;;;;;;;;22.46;60.30;101052.97;2237275;78;51101;-77
2022/09/12 00:39:48;;;;;;;;;;;;;;;22.46;60.16;101052.97;2247370;78;53867;-77
2022/09/12 00:42:51;;;;;;;;;;;;;;;22.44;60.20;101060.42;2257631;77;51536;-76
2022/09/12 00:45:53;;;;;;;;;;;;;;;22.43;60.39;101059.59;2279132;77;50735;-76
2022/09/12 00:48:56;;;;;;;;;;;;;;;22.44;60.41;101059.07;2261665;78;50133;-77
2022/09/12 00:51:59;;;;;;;;;;;;;;;22.49;60.24;101055.27;2286665;78;51450;-76
2022/09/12 00:55:08;;;;;;;;;;;;;;;22.45;60.60;101055.33;2287238;76;50384;-77
2022/09/12 00:58:11;;;;;;;;;;;;;;;22.47;60.50;101054.10;2287281;78;51472;-76
2022/09/12 01:01:13;;;;;;;;;;;;;;;22.49;60.32;101060.66;2260409;78;51046;-76
2022/09/12 01:04:14;;;;;;;;;;;;;;;22.50;60.38;101052.88;2259957;76;50022;-76
2022/09/12 01:07:16;;;;;;;;;;;;;;;22.48;60.19;101058.97;2287327;78;50394;-76
2022/09/12 01:10:18;;;;;;;;;;;;;;;22.47;60.26;101052.75;2287245;77;50370;-76
2022/09/12 01:13:19;;;;;;;;;;;;;;;22.48;60.13;101050.88;2238082;79;51306;-76
2022/09/12 01:16:21;;;;;;;;;;;;;;;22.46;60.11;101048.92;2263556;78;50433;-76
2022/09/12 01:19:30;;;;;;;;;;;;;;;22.47;60.13;101047.88;2281555;77;50638;-77
2022/09/12 01:22:49;;;;;;;;;;;;;;;22.43;60.10;101044.77;2294214;77;50713;-76
2022/09/12 01:25:52;;;;;;;;;;;;;;;22.44;60.03;101048.29;2251757;77;52457;-76
2022/09/12 01:28:58;;;;;;;;;;;;;;;22.42;60.16;101048.47;2288926;77;51520;-77
2022/09/12 01:32:14;;;;;;;;;;;;;;;22.37;60.36;101046.36;2286339;77;50561;-75
2022/09/12 01:35:34;;;;;;;;;;;;;;;22.39;60.28;101052.40;2285851;76;50498;-77
2022/09/12 01:38:36;;;;;;;;;;;;;;;22.43;60.22;101060.08;2260829;78;49693;-76
2022/09/12 01:41:50;;;;;;;;;;;;;;;22.42;60.29;101047.64;2286297;77;51617;-76
2022/09/12 01:44:53;;;;;;;;;;;;;;;22.40;60.34;101045.13;2286658;76;50003;-76
2022/09/12 01:47:56;;;;;;;;;;;;;;;22.41;60.29;101045.99;2286744;78;51581;-76
2022/09/12 01:51:02;;;;;;;;;;;;;;;22.38;60.35;101037.27;2261494;78;51876;-76
2022/09/12 01:54:11;;;;;;;;;;;;;;;22.39;60.25;101044.31;2285762;76;51522;-76
2022/09/12 01:57:18;;;;;;;;;;;;;;;22.37;60.36;101036.11;2243133;76;50858;-76
2022/09/12 02:00:20;;;;;;;;;;;;;;;22.40;60.20;101038.39;2293942;77;51536;-76
2022/09/12 02:03:26;;;;;;;;;;;;;;;22.38;60.12;101035.91;2270778;77;52541;-76
2022/09/12 02:06:29;;;;;;;;;;;;;;;22.41;60.00;101041.95;2294790;76;51650;-76
2022/09/12 02:09:39;;;;;;;;;;;;;;;22.41;59.91;101036.03;2294164;77;51598;-76
2022/09/12 02:12:45;;;;;;;;;;;;;;;22.44;60.02;101048.29;2294930;77;51573;-76
2022/09/12 02:15:48;;;;;;;;;;;;;;;22.44;59.95;101035.62;2269007;77;50972;-76
2022/09/12 02:18:52;;;;;;;;;;;;;;;22.42;60.09;101043.60;2294013;77;51518;-76
2022/09/12 02:21:54;;;;;;;;;;;;;;;22.42;59.92;101038.20;2294149;77;50804;-77
2022/09/12 02:24:57;;;;;;;;;;;;;;;22.43;60.09;101041.20;2269088;76;50370;-76
2022/09/12 02:28:03;;;;;;;;;;;;;;;22.42;60.09;101044.95;2199864;80;51149;-76
2022/09/12 02:31:12;;;;;;;;;;;;;;;22.37;60.18;101048.23;2234591;78;51560;-76
2022/09/12 02:34:34;;;;;;;;;;;;;;;22.36;60.17;101042.02;2275046;76;50440;-76
2022/09/12 02:37:43;;;;;;;;;;;;;;;22.33;60.16;101037.03;2294234;77;50683;-76
2022/09/12 02:40:44;;;;;;;;;;;;;;;22.32;60.24;101039.39;2269966;77;52494;-76
2022/09/12 02:43:46;;;;;;;;;;;;;;;22.32;60.20;101028.61;2294823;76;50362;-76
2022/09/12 02:46:49;;;;;;;;;;;;;;;22.33;60.08;101036.20;2294665;77;51584;-77
2022/09/12 02:49:51;;;;;;;;;;;;;;;22.33;60.22;101032.98;2294876;77;50427;-76
2022/09/12 02:52:54;;;;;;;;;;;;;;;22.32;60.05;101035.34;2271329;77;51026;-76
2022/09/12 02:55:56;;;;;;;;;;;;;;;22.30;60.14;101042.82;2294660;76;51614;-77
2022/09/12 02:58:59;;;;;;;;;;;;;;;22.33;60.03;101045.11;2295148;77;51592;-77
2022/09/12 03:02:08;;;;;;;;;;;;;;;22.37;59.85;101042.84;2276912;77;50844;-77
2022/09/12 03:05:11;;;;;;;;;;;;;;;22.36;59.95;101043.89;2261067;78;52520;-76
2022/09/12 03:08:20;;;;;;;;;;;;;;;22.36;59.87;101043.89;2286761;77;51511;-76
2022/09/12 03:11:24;;;;;;;;;;;;;;;22.36;59.77;101049.28;2286947;77;50005;-76
2022/09/12 03:14:30;;;;;;;;;;;;;;;22.34;59.86;101042.72;2286733;76;51561;-75
2022/09/12 03:17:34;;;;;;;;;;;;;;;22.34;59.86;101045.94;2245734;78;50960;-76
2022/09/12 03:20:43;;;;;;;;;;;;;;;22.35;59.87;101041.71;2287118;78;51498;-76
2022/09/12 03:23:46;;;;;;;;;;;;;;;22.35;59.89;101043.55;2286049;76;50764;-76
2022/09/12 03:26:54;;;;;;;;;;;;;;;22.34;59.94;101043.25;2286359;78;51525;-76
2022/09/12 03:29:56;;;;;;;;;;;;;;;22.32;59.93;101040.73;2250853;78;49811;-76
2022/09/12 03:32:58;;;;;;;;;;;;;;;22.31;59.96;101039.08;2236433;79;50283;-76
2022/09/12 03:35:59;;;;;;;;;;;;;;;22.32;59.90;101038.56;2248224;79;50102;-76
2022/09/12 03:39:01;;;;;;;;;;;;;;;22.33;59.94;101046.47;2223931;79;50123;-76
2022/09/12 03:42:02;;;;;;;;;;;;;;;22.33;59.83;101045.64;2223733;78;52759;-76
2022/09/12 03:45:05;;;;;;;;;;;;;;;22.31;59.82;101043.13;2248084;79;50715;-76
2022/09/12 03:48:06;;;;;;;;;;;;;;;22.31;59.93;101047.69;2248839;79;50445;-75
2022/09/12 03:51:08;;;;;;;;;;;;;;;22.32;59.75;101050.70;2248704;79;50236;-76
2022/09/12 03:54:10;;;;;;;;;;;;;;;22.33;59.58;101043.77;2223435;79;52570;-76
2022/09/12 03:57:12;;;;;;;;;;;;;;;22.32;59.51;101038.56;2248177;79;51587;-76
2022/09/12 04:00:13;;;;;;;;;;;;;;;22.33;59.40;101046.47;2248723;79;50402;-76
2022/09/12 04:03:15;;;;;;;;;;;;;;;22.34;59.31;101052.16;2240150;78;51520;-76
2022/09/12 04:06:18;;;;;;;;;;;;;;;22.33;59.21;101049.16;2261430;78;49362;-75
2022/09/12 04:09:20;;;;;;;;;;;;;;;22.33;59.17;101057.77;2286472;77;50449;-76
2022/09/12 04:12:21;;;;;;;;;;;;;;;22.32;59.31;101054.73;2286799;78;50486;-76
2022/09/12 04:15:23;;;;;;;;;;;;;;;22.30;59.53;101056.79;2259649;78;51427;-76
2022/09/12 04:18:25;;;;;;;;;;;;;;;22.32;59.44;101059.61;2262896;78;49578;-76
2022/09/12 04:21:26;;;;;;;;;;;;;;;22.31;59.62;101046.34;2291085;78;51483;-76
2022/09/12 04:24:28;;;;;;;;;;;;;;;22.31;59.62;101051.22;2264107;76;50817;-77
2022/09/12 04:27:29;;;;;;;;;;;;;;;22.29;59.81;101049.23;2290404;78;50731;-76
2022/09/12 04:30:33;;;;;;;;;;;;;;;22.29;59.70;101045.19;2261470;78;50264;-76
2022/09/12 04:33:35;;;;;;;;;;;;;;;22.29;59.60;101045.19;2252936;77;50362;-76
2022/09/12 04:36:36;;;;;;;;;;;;;;;22.29;59.58;101043.01;2298204;76;50772;-76
2022/09/12 04:39:38;;;;;;;;;;;;;;;22.30;59.62;101046.87;2281162;77;50788;-77
2022/09/12 04:42:39;;;;;;;;;;;;;;;22.29;59.61;101048.40;2186926;79;50170;-76
2022/09/12 04:45:41;;;;;;;;;;;;;;;22.28;59.59;101042.18;2231712;78;51536;-77
2022/09/12 04:48:43;;;;;;;;;;;;;;;22.28;59.48;101044.88;2263581;78;50310;-75
2022/09/12 04:51:44;;;;;;;;;;;;;;;22.29;59.43;101045.19;2252308;78;52460;-75
2022/09/12 04:54:46;;;;;;;;;;;;;;;22.28;59.64;101054.31;2231963;78;49596;-76
2022/09/12 04:57:47;;;;;;;;;;;;;;;22.28;59.54;101046.22;2255286;75;50634;-75
2022/09/12 05:00:50;;;;;;;;;;;;;;;22.29;59.43;101051.09;2251804;78;51581;-75
2022/09/12 05:03:52;;;;;;;;;;;;;;;22.27;59.35;101047.76;2251243;77;50410;-75
2022/09/12 05:06:53;;;;;;;;;;;;;;;22.27;59.40;101047.76;2251677;78;50391;-76
2022/09/12 05:09:55;;;;;;;;;;;;;;;22.27;59.26;101047.76;2251605;78;50317;-76
2022/09/12 05:12:57;;;;;;;;;;;;;;;22.29;59.25;101047.88;2251533;78;50622;-77
2022/09/12 05:15:58;;;;;;;;;;;;;;;22.26;59.14;101047.45;2259685;78;51978;-77
2022/09/12 05:19:00;;;;;;;;;;;;;;;22.28;58.91;101047.58;2219779;79;49628;-76
2022/09/12 05:22:03;;;;;;;;;;;;;;;22.28;58.79;101046.22;2243171;79;50405;-77
2022/09/12 05:25:05;;;;;;;;;;;;;;;22.28;58.71;101058.36;2242355;79;51619;-77
2022/09/12 05:28:07;;;;;;;;;;;;;;;22.27;58.73;101067.48;2243111;79;51550;-77
2022/09/12 05:31:10;;;;;;;;;;;;;;;22.27;58.84;101055.36;2213446;79;52034;-76
2022/09/12 05:34:12;;;;;;;;;;;;;;;22.27;58.62;101062.58;2268169;76;51600;-77
2022/09/12 05:37:13;;;;;;;;;;;;;;;22.26;58.54;101059.06;2245125;79;51582;-77
2022/09/12 05:40:18;;;;;;;;;;;;;;;22.29;58.29;101055.97;2248748;78;51514;-77
2022/09/12 05:43:19;;;;;;;;;;;;;;;22.27;57.98;101073.37;2223613;79;23026;-77
2022/09/12 05:46:21;;;;;;;;;;;;;;;22.27;58.17;101066.14;2248641;78;51559;-77
2022/09/12 05:49:23;;;;;;;;;;;;;;;22.33;57.89;101075.30;2248864;79;50757;-77
2022/09/12 05:52:25;;;;;;;;;;;;;;;22.36;57.46;101077.59;2248739;79;50234;-77
2022/09/12 05:55:26;;;;;;;;;;;;;;;22.36;55.71;101081.11;2200469;79;50940;-77
2022/09/12 05:58:28;;;;;;;;;;;;;;;22.35;55.21;101080.80;2248197;77;50382;-77
2022/09/12 06:01:30;;;;;;;;;;;;;;;22.30;55.31;101090.00;2263785;77;50373;-77
2022/09/12 06:04:32;;;;;;;;;;;;;;;22.31;53.68;101086.27;2289893;76;51530;-77
2022/09/12 06:07:34;;;;;;;;;;;;;;;22.30;54.22;101090.48;2244877;78;49541;-77
2022/09/12 06:10:36;;;;;;;;;;;;;;;22.32;53.89;101087.91;2257109;78;51525;-77
2022/09/12 06:13:39;;;;;;;;;;;;;;;22.32;54.22;101091.96;2256931;78;51535;-76
2022/09/12 06:16:40;;;;;;;;;;;;;;;22.31;54.14;101088.95;2256825;79;50442;-76
2022/09/12 06:19:42;;;;;;;;;;;;;;;22.33;53.31;101090.95;2231871;79;49648;-76
2022/09/12 06:22:43;;;;;;;;;;;;;;;22.30;53.61;101092.70;2257086;79;50353;-76
2022/09/12 06:25:49;;;;;;;;;;;;;;;22.32;52.30;101097.87;2256571;77;50840;-76
2022/09/12 06:28:50;;;;;;;;;;;;;;;22.33;51.81;101096.86;2255788;78;51515;-77
2022/09/12 06:31:52;;;;;;;;;;;;;;;22.31;51.79;101093.00;2257607;77;50929;-77
2022/09/12 06:34:54;;;;;;;;;;;;;;;22.30;51.58;101102.13;2249249;78;50742;-76
2022/09/12 06:37:55;;;;;;;;;;;;;;;22.28;51.53;101105.53;2273514;77;50649;-76
2022/09/12 06:40:58;;;;;;;;;;;;;;;22.25;51.56;101105.93;2248677;79;51525;-76
2022/09/12 06:44:00;;;;;;;;;;;;;;;22.25;52.10;101109.15;2274028;77;49715;-75
2022/09/12 06:47:01;;;;;;;;;;;;;;;22.28;52.31;101110.09;2273741;78;51523;-77
2022/09/12 06:50:03;;;;;;;;;;;;;;;22.32;52.34;101112.70;2248672;77;50393;-76
2022/09/12 06:53:04;;;;;;;;;;;;;;;22.35;52.34;101110.46;2273864;77;51453;-76
2022/09/12 06:56:06;;;;;;;;;;;;;;;22.37;52.31;101103.51;2251526;77;51594;-76
2022/09/12 06:59:08;;;;;;;;;;;;;;;22.41;52.27;101105.31;2247902;79;50691;-75
2022/09/12 07:02:09;;;;;;;;;;;;;;;22.43;52.24;101103.23;2264070;77;51570;-76
2022/09/12 07:05:12;;;;;;;;;;;;;;;22.45;52.24;101108.73;2242745;79;51494;-76
2022/09/12 07:08:14;;;;;;;;;;;;;;;22.46;52.20;101105.03;2219072;79;49618;-76
2022/09/12 07:11:16;;;;;;;;;;;;;;;22.46;52.22;101098.29;2243317;79;50455;-76
2022/09/12 07:14:18;;;;;;;;;;;;;;;22.48;52.20;101100.77;2242508;79;51564;-76
2022/09/12 07:17:19;;;;;;;;;;;;;;;22.49;52.16;101093.84;2242577;79;50771;-75
2022/09/12 07:20:22;;;;;;;;;;;;;;;22.50;52.11;101098.20;2242601;79;50234;-75
2022/09/12 07:23:23;;;;;;;;;;;;;;;22.51;52.09;101099.88;2243041;79;51566;-75
2022/09/12 07:26:26;;;;;;;;;;;;;;;22.51;52.05;101095.83;2242791;79;50797;-76
2022/09/12 07:29:27;;;;;;;;;;;;;;;22.50;52.07;101104.94;2220196;79;50847;-75
2022/09/12 07:32:29;;;;;;;;;;;;;;;22.50;52.02;101102.23;2194247;79;50189;-76
2022/09/12 07:35:32;;;;;;;;;;;;;;;22.50;52.06;101101.41;2248803;78;51493;-75
2022/09/12 07:38:34;;;;;;;;;;;;;;;22.49;51.97;101097.89;2248662;79;50142;-75
2022/09/12 07:41:35;;;;;;;;;;;;;;;22.51;51.96;101095.00;2248688;79;51527;-75
2022/09/12 07:44:37;;;;;;;;;;;;;;;22.53;51.90;101096.97;2273571;77;52601;-76
2022/09/12 07:47:39;;;;;;;;;;;;;;;22.52;51.87;101095.31;2249042;77;50387;-76
2022/09/12 07:50:41;;;;;;;;;;;;;;;22.52;51.77;101094.79;2274895;77;51626;-75
2022/09/12 07:53:42;;;;;;;;;;;;;;;22.53;51.73;101096.47;2273640;78;53642;-76
2022/09/12 07:56:44;;;;;;;;;;;;;;;22.54;51.67;101098.65;2223692;77;49834;-75
2022/09/12 07:59:46;;;;;;;;;;;;;;;22.51;51.70;101096.36;2268962;77;51527;-76
2022/09/12 08:02:51;;;;;;;;;;;;;;;22.48;51.67;101102.13;2252092;78;51492;-75
2022/09/12 08:05:52;;;;;;;;;;;;;;;22.45;51.84;101097.95;2286551;76;50413;-75
2022/09/12 08:08:55;;;;;;;;;;;;;;;22.42;51.78;101107.80;2259611;78;50434;-75
2022/09/12 08:11:56;;;;;;;;;;;;;;;22.42;51.78;101102.92;2259687;78;51613;-75
2022/09/12 08:14:58;;;;;;;;;;;;;;;22.39;51.98;101103.62;2259054;78;52448;-75
2022/09/12 08:18:00;;;;;;;;;;;;;;;22.37;51.91;101110.25;2286791;77;50313;-76
2022/09/12 08:21:02;;;;;;;;;;;;;;;22.36;51.85;101110.77;2235430;78;52559;-76
2022/09/12 08:24:04;;;;;;;;;;;;;;;22.32;52.00;101110.83;2259301;76;50689;-75
2022/09/12 08:27:06;;;;;;;;;;;;;;;22.32;51.85;101108.66;2286281;77;50390;-75
2022/09/12 08:30:08;;;;;;;;;;;;;;;22.33;51.86;101109.82;2278132;78;51707;-75
2022/09/12 08:33:10;;;;;;;;;;;;;;;22.34;51.79;101100.69;2239315;78;49687;-75
2022/09/12 08:36:13;;;;;;;;;;;;;;;22.33;51.83;101108.99;2256591;77;50334;-75
2022/09/12 08:39:15;;;;;;;;;;;;;;;22.32;51.77;101102.74;2268378;78;51615;-76
2022/09/12 08:42:21;;;;;;;;;;;;;;;22.32;51.69;101110.00;2259494;78;50379;-76
2022/09/12 08:45:22;;;;;;;;;;;;;;;22.30;51.70;101107.52;2286579;76;22340;-76
2022/09/12 08:48:24;;;;;;;;;;;;;;;22.30;51.73;101108.02;2286863;78;50373;-76
2022/09/12 08:51:25;;;;;;;;;;;;;;;22.29;51.68;101102.31;2286886;77;50407;-75
2022/09/12 08:54:27;;;;;;;;;;;;;;;22.28;51.66;101104.19;2286600;76;50724;-76
2022/09/12 08:57:29;;;;;;;;;;;;;;;22.28;51.62;101100.66;2260812;78;49681;-75
2022/09/12 09:00:32;;;;;;;;;;;;;;;22.27;51.61;101107.92;2286603;78;50362;-75
2022/09/12 09:03:36;;;;;;;;;;;;;;;22.25;51.58;101104.58;2286780;78;51540;-76
2022/09/12 09:06:42;;;;;;;;;;;;;;;22.26;51.59;101101.37;2279720;77;51485;-76
2022/09/12 09:10:00;;;;;;;;;;;;;;;22.25;51.56;101102.41;2245551;78;50255;-75
2022/09/12 09:13:06;;;;;;;;;;;;;;;22.25;51.57;101098.37;2287296;77;51530;-75
2022/09/12 09:16:15;;;;;;;;;;;;;;;22.24;51.56;101103.42;2286994;76;51545;-75
2022/09/12 09:19:18;;;;;;;;;;;;;;;22.24;51.53;101096.16;2287268;77;50302;-76
2022/09/12 09:22:31;;;;;;;;;;;;;;;22.23;51.48;101093.16;2261097;77;50699;-75
2022/09/12 09:25:44;;;;;;;;;;;;;;;22.21;51.51;101097.08;2286959;76;50807;-75
2022/09/12 09:28:50;;;;;;;;;;;;;;;22.20;51.61;101097.60;2287174;78;50461;-76
2022/09/12 09:31:52;;;;;;;;;;;;;;;22.20;51.76;101089.52;2287261;77;50608;-75
2022/09/12 09:34:53;;;;;;;;;;;;;;;22.20;51.50;101090.86;2260906;78;50263;-75
2022/09/12 09:38:02;;;;;;;;;;;;;;;22.18;51.80;101098.27;2251084;78;51526;-75
2022/09/12 09:41:05;;;;;;;;;;;;;;;22.14;51.66;101086.20;2238050;78;51583;-75
2022/09/12 09:44:07;;;;;;;;;;;;;;;22.13;51.76;101090.77;2248717;78;51598;-75
2022/09/12 09:47:08;;;;;;;;;;;;;;;22.14;51.61;101091.59;2224147;78;51231;-76
2022/09/12 09:50:11;;;;;;;;;;;;;;;22.12;51.69;101092.33;2249054;78;50033;-75
2022/09/12 09:53:15;;;;;;;;;;;;;;;22.11;51.80;101083.91;2248820;78;50448;-75
2022/09/12 09:56:24;;;;;;;;;;;;;;;22.12;51.76;101088.29;2248675;78;50308;-75
2022/09/12 09:59:26;;;;;;;;;;;;;;;22.11;51.76;101083.39;2223523;79;50172;-75
2022/09/12 10:02:28;;;;;;;;;;;;;;;22.10;51.88;101090.34;2248942;78;50455;-75
2022/09/12 10:05:30;;;;;;;;;;;;;;;22.10;51.83;101079.56;2248885;78;50417;-75
2022/09/12 10:08:34;;;;;;;;;;;;;;;22.09;51.74;101084.13;2268219;77;51613;-75
2022/09/12 10:11:35;;;;;;;;;;;;;;;22.08;51.59;101076.22;2260546;78;50252;-75
2022/09/12 10:14:41;;;;;;;;;;;;;;;22.09;51.73;101073.83;2286769;76;51590;-75
2022/09/12 10:17:43;;;;;;;;;;;;;;;22.08;51.51;101078.91;2287230;78;50346;-75
2022/09/12 10:20:44;;;;;;;;;;;;;;;22.07;51.47;101071.88;2259639;77;51536;-75
2022/09/12 10:23:46;;;;;;;;;;;;;;;22.07;51.49;101065.14;2261049;76;51278;-76
2022/09/12 10:27:06;;;;;;;;;;;;;;;22.07;51.44;101065.96;2287074;77;51506;-75
2022/09/12 10:30:09;;;;;;;;;;;;;;;22.09;51.47;101067.09;2287165;78;51483;-75
2022/09/12 10:33:11;;;;;;;;;;;;;;;22.07;51.46;101063.78;2265665;78;52448;-75
2022/09/12 10:36:13;;;;;;;;;;;;;;;22.08;51.47;101069.48;2210822;79;50428;-76
2022/09/12 10:39:16;;;;;;;;;;;;;;;22.07;51.40;101058.40;2237484;78;50134;-76
2022/09/12 10:42:19;;;;;;;;;;;;;;;22.07;51.28;101055.70;2277892;78;50689;-76
2022/09/12 10:45:22;;;;;;;;;;;;;;;22.06;51.13;101056.19;2265758;76;50827;-76
2022/09/12 10:48:28;;;;;;;;;;;;;;;22.07;51.15;101051.66;2284535;77;51530;-77
2022/09/12 10:51:30;;;;;;;;;;;;;;;22.05;50.72;101051.02;2284275;78;51476;-77
2022/09/12 10:54:33;;;;;;;;;;;;;;;22.05;50.83;101051.84;2269339;76;51498;-76
2022/09/12 10:57:39;;;;;;;;;;;;;;;22.05;50.98;101045.62;2302413;77;50437;-77
2022/09/12 11:00:40;;;;;;;;;;;;;;;22.07;50.94;101050.31;2205099;80;50447;-77
2022/09/12 11:03:43;;;;;;;;;;;;;;;22.07;50.94;101048.45;2174317;79;49701;-77
2022/09/12 11:06:47;;;;;;;;;;;;;;;22.08;51.08;101049.27;2201201;79;50422;-76
2022/09/12 11:10:06;;;;;;;;;;;;;;;22.07;51.01;101045.75;2237948;77;50687;-76
2022/09/12 11:13:15;;;;;;;;;;;;;;;22.09;50.95;101045.53;2302434;77;50744;-77
2022/09/12 11:16:25;;;;;;;;;;;;;;;22.08;51.00;101050.09;2243540;78;52767;-77
2022/09/12 11:19:28;;;;;;;;;;;;;;;22.06;51.10;101043.23;2247593;78;51578;-76
2022/09/12 11:22:31;;;;;;;;;;;;;;;22.07;51.18;101048.45;2268826;77;51588;-76
2022/09/12 11:25:40;;;;;;;;;;;;;;;22.11;50.96;101051.05;2260209;76;51652;-76
2022/09/12 11:28:52;;;;;;;;;;;;;;;22.07;50.88;101048.97;2260278;78;51625;-76
2022/09/12 11:32:14;;;;;;;;;;;;;;;22.05;50.81;101056.41;2265375;77;50715;-76
2022/09/12 11:35:21;;;;;;;;;;;;;;;22.06;50.88;101054.84;2212338;79;51709;-76
2022/09/12 11:38:25;;;;;;;;;;;;;;;22.11;50.17;101048.34;2212422;80;51514;-76
2022/09/12 11:41:30;;;;;;;;;;;;;;;22.09;50.37;101049.58;2187797;80;52712;-76
2022/09/12 11:44:36;;;;;;;;;;;;;;;22.08;50.49;101048.75;2212295;79;51552;-76
2022/09/12 11:47:37;;;;;;;;;;;;;;;22.06;50.56;101040.55;2221853;79;49629;-76
2022/09/12 11:50:39;;;;;;;;;;;;;;;22.08;50.55;101043.87;2248758;77;50243;-77
2022/09/12 11:53:40;;;;;;;;;;;;;;;22.08;50.32;101037.97;2248401;77;50657;-76
2022/09/12 11:56:45;;;;;;;;;;;;;;;22.09;50.35;101033.41;2248690;79;50730;-76
2022/09/12 11:59:58;;;;;;;;;;;;;;;22.07;50.29;101031.45;2248614;78;50593;-76
2022/09/12 12:03:13;;;;;;;;;;;;;;;22.07;50.08;101031.45;2234981;79;51433;-76
2022/09/12 12:06:18;;;;;;;;;;;;;;;22.06;50.09;101021.68;2242848;79;50886;-76
2022/09/12 12:09:20;;;;;;;;;;;;;;;22.06;50.11;101024.38;2243076;79;53095;-77
2022/09/12 12:12:23;;;;;;;;;;;;;;;22.06;49.98;101024.38;2243676;79;51515;-76
2022/09/12 12:15:24;;;;;;;;;;;;;;;22.04;49.55;101012.95;2248649;78;52716;-76
2022/09/12 12:18:27;;;;;;;;;;;;;;;22.06;49.85;101008.20;2223742;79;49611;-76
2022/09/12 12:21:33;;;;;;;;;;;;;;;22.06;49.69;101008.20;2247678;79;50493;-75
2022/09/12 12:24:36;;;;;;;;;;;;;;;22.08;49.41;101000.77;2248509;78;51589;-76
2022/09/12 12:27:45;;;;;;;;;;;;;;;22.08;49.10;101003.45;2246599;79;50305;-76
2022/09/12 12:30:54;;;;;;;;;;;;;;;22.07;49.39;100997.77;2220159;79;51041;-76
2022/09/12 12:34:03;;;;;;;;;;;;;;;22.07;49.48;100995.06;2266415;76;50323;-75
2022/09/12 12:37:21;;;;;;;;;;;;;;;22.08;49.41;100995.38;2277012;77;50677;-74
2022/09/12 12:40:24;;;;;;;;;;;;;;;22.08;49.08;100988.11;2248127;79;50850;-75
2022/09/12 12:43:30;;;;;;;;;;;;;;;22.06;49.14;100990.69;2223637;79;49719;-75
2022/09/12 12:46:32;;;;;;;;;;;;;;;22.06;49.46;100996.91;2223916;77;51698;-75
2022/09/12 12:49:34;;;;;;;;;;;;;;;22.06;49.32;100998.77;2223421;79;51457;-76
2022/09/12 12:52:49;;;;;;;;;;;;;;;22.06;49.59;101001.47;2248968;79;51496;-75
2022/09/12 12:55:51;;;;;;;;;;;;;;;22.05;49.39;100999.81;2223416;79;51297;-75
2022/09/12 12:58:57;;;;;;;;;;;;;;;22.06;49.45;100999.59;2223663;79;49963;-75
2022/09/12 13:01:59;;;;;;;;;;;;;;;22.06;49.50;100997.42;2236426;77;52199;-76
2022/09/12 13:05:01;;;;;;;;;;;;;;;22.05;49.63;100990.38;2294774;76;51491;-75
2022/09/12 13:08:05;;;;;;;;;;;;;;;22.05;49.71;100995.25;2270898;77;51054;-75
2022/09/12 13:11:16;;;;;;;;;;;;;;;22.06;49.66;100992.03;2293589;76;51625;-75
2022/09/12 13:14:36;;;;;;;;;;;;;;;22.06;49.65;100995.56;2294621;76;51472;-75
2022/09/12 13:17:41;;;;;;;;;;;;;;;22.07;49.69;100993.72;2295080;77;50057;-75
2022/09/12 13:21:01;;;;;;;;;;;;;;;22.05;49.71;100986.34;2271727;76;51300;-75
2022/09/12 13:24:04;;;;;;;;;;;;;;;22.07;49.65;100986.98;2295161;76;51681;-73
2022/09/12 13:27:07;;;;;;;;;;;;;;;22.08;49.77;100979.20;2293704;76;51692;-74
2022/09/12 13:30:11;;;;;;;;;;;;;;;22.06;49.79;100979.39;2286365;77;51640;-74
2022/09/12 13:33:28;;;;;;;;;;;;;;;22.06;49.95;100979.91;2224727;79;22232;-74
2022/09/12 13:36:48;;;;;;;;;;;;;;;22.07;49.83;100974.86;2216348;79;50812;-74
2022/09/12 13:39:51;;;;;;;;;;;;;;;22.07;49.73;100972.16;2212510;80;50697;-74
2022/09/12 13:42:53;;;;;;;;;;;;;;;22.06;49.88;100969.13;2212366;80;51504;-74
2022/09/12 13:45:54;;;;;;;;;;;;;;;22.06;49.86;100963.74;2188064;80;50234;-74
2022/09/12 13:48:57;;;;;;;;;;;;;;;22.06;49.81;100957.83;2214144;78;51553;-74
2022/09/12 13:52:05;;;;;;;;;;;;;;;22.07;49.78;100955.47;2217204;80;50840;-74
2022/09/12 13:55:08;;;;;;;;;;;;;;;22.07;49.96;100947.91;2211202;79;52656;-74
2022/09/12 13:58:17;;;;;;;;;;;;;;;22.08;50.06;100954.95;2190805;80;50977;-74
2022/09/12 14:01:18;;;;;;;;;;;;;;;22.07;49.83;100957.34;2247573;78;51293;-74
2022/09/12 14:07:51;;;;;;;;;;;;;;;22.05;49.96;100953.48;2251866;79;21988;-75
2022/09/12 14:10:52;;;;;;;;;;;;;;;22.06;50.01;100948.40;2249254;78;22370;-74
2022/09/12 14:13:54;;;;;;;;;;;;;;;22.06;49.94;100943.53;2248436;79;50696;-74
2022/09/12 14:16:56;;;;;;;;;;;;;;;22.06;50.10;100953.79;2248572;79;50349;-74
2022/09/12 14:20:02;;;;;;;;;;;;;;;22.06;49.92;100948.40;2248610;79;51519;-74
2022/09/12 14:23:05;;;;;;;;;;;;;;;22.07;49.99;100942.52;2223431;79;51902;-74
2022/09/12 14:26:10;;;;;;;;;;;;;;;22.08;50.13;100948.21;2248262;79;55344;-74
2022/09/12 14:29:13;;;;;;;;;;;;;;;22.07;49.95;100946.56;2248782;79;50689;-74
2022/09/12 14:32:16;;;;;;;;;;;;;;;22.07;49.98;100950.08;2265771;77;51477;-75
2022/09/12 14:35:18;;;;;;;;;;;;;;;22.07;49.95;100950.60;2260747;77;51520;-74
2022/09/12 14:38:24;;;;;;;;;;;;;;;22.07;49.93;100946.56;2259531;78;52176;-74
2022/09/12 14:41:27;;;;;;;;;;;;;;;22.07;49.97;100935.78;2267403;77;51449;-74
2022/09/12 14:44:29;;;;;;;;;;;;;;;22.06;49.98;100937.62;2259830;77;50748;-74
2022/09/12 14:47:36;;;;;;;;;;;;;;;22.06;50.04;100938.97;2228857;78;52623;-74
2022/09/12 14:50:38;;;;;;;;;;;;;;;22.07;49.98;100938.48;2260050;78;50762;-75
2022/09/12 14:53:41;;;;;;;;;;;;;;;22.06;49.98;100933.58;2260202;78;50307;-75
2022/09/12 14:56:43;;;;;;;;;;;;;;;22.05;50.00;100935.97;2259745;78;50402;-74
2022/09/12 14:59:45;;;;;;;;;;;;;;;22.06;50.02;100928.70;2228048;78;51067;-75
2022/09/12 15:02:47;;;;;;;;;;;;;;;22.05;49.95;100931.92;2251532;78;51494;-75
2022/09/12 15:05:49;;;;;;;;;;;;;;;22.06;49.94;100923.31;2260037;76;50800;-74
2022/09/12 15:08:51;;;;;;;;;;;;;;;22.06;50.00;100927.36;2259842;78;50725;-74
2022/09/12 15:11:53;;;;;;;;;;;;;;;22.05;49.99;100917.11;2250529;77;50307;-74
2022/09/12 15:14:57;;;;;;;;;;;;;;;22.07;50.02;100922.30;2269510;77;51546;-74
2022/09/12 15:17:58;;;;;;;;;;;;;;;22.05;49.97;100918.45;2294726;77;51523;-74
2022/09/12 15:21:06;;;;;;;;;;;;;;;22.05;49.88;100920.33;2294760;77;51496;-74
2022/09/12 15:24:08;;;;;;;;;;;;;;;22.04;50.01;100918.64;2270767;76;50173;-75
2022/09/12 15:27:11;;;;;;;;;;;;;;;22.04;49.98;100914.11;2292479;77;51523;-75
2022/09/12 15:30:13;;;;;;;;;;;;;;;22.05;50.00;100920.33;2225133;78;50420;-75
2022/09/12 15:33:14;;;;;;;;;;;;;;;22.05;49.86;100917.63;2220590;79;50096;-74
2022/09/12 15:36:17;;;;;;;;;;;;;;;22.04;49.91;100911.41;2224632;79;52418;-75
2022/09/12 15:39:19;;;;;;;;;;;;;;;22.03;49.98;100912.42;2255033;78;50331;-74
2022/09/12 15:42:22;;;;;;;;;;;;;;;22.03;49.80;100916.98;2268570;78;50192;-75
2022/09/12 15:45:26;;;;;;;;;;;;;;;22.04;49.69;100913.25;2247975;78;50470;-73